Time;durP1;ratioP1;P1;durP2;ratioP2;P2;SDS_P1;SDS_P2;PMS_P1;PMS_P2;Temp;Humidity;BMP_temperature;BMP_pressure;BME280_temperature;BME280_humidity;BME280_pressure;Samples;Min_cycle;Max_cycle;Signal;HPM_P1;HPM_P2
2021/05/16 00:00:36;;;;;;;5.03;1.77;;;7.70;99.90;;;;;;6247604;22;20023;-88
2021/05/16 00:03:03;;;;;;;2.75;1.52;;;7.70;99.90;;;;;;6247112;22;20110;-87
2021/05/16 00:05:31;;;;;;;2.78;1.48;;;7.70;99.90;;;;;;6247727;22;20065;-90
2021/05/16 00:07:59;;;;;;;5.38;1.50;;;7.70;99.90;;;;;;6247739;22;20023;-89
2021/05/16 00:10:27;;;;;;;3.30;1.50;;;7.70;99.90;;;;;;6274578;22;20051;-88
2021/05/16 00:12:56;;;;;;;3.40;1.67;;;7.70;99.90;;;;;;6273948;22;20016;-90
2021/05/16 00:15:25;;;;;;;5.35;1.55;;;7.70;99.90;;;;;;6247387;22;20087;-87
2021/05/16 00:17:53;;;;;;;3.28;1.40;;;7.70;99.90;;;;;;6247025;22;20430;-89
2021/05/16 00:20:24;;;;;;;1.90;1.52;;;7.70;99.90;;;;;;6246962;22;20024;-88
2021/05/16 00:22:53;;;;;;;3.85;2.10;;;7.70;99.90;;;;;;6247628;22;20045;-89
2021/05/16 00:25:21;;;;;;;4.28;1.65;;;7.70;99.90;;;;;;6248367;22;20035;-84
2021/05/16 00:27:48;;;;;;;4.22;1.60;;;7.70;99.90;;;;;;6251014;22;20024;-89
2021/05/16 00:30:18;;;;;;;8.32;1.48;;;7.70;99.90;;;;;;6250939;22;20069;-89
2021/05/16 00:32:45;;;;;;;3.22;1.70;;;7.70;99.90;;;;;;6249229;22;20015;-89
2021/05/16 00:35:18;;;;;;;5.00;1.80;;;7.70;99.90;;;;;;6250458;22;20020;-87
2021/05/16 00:37:46;;;;;;;4.60;1.40;;;7.70;99.90;;;;;;6274366;22;20365;-88
2021/05/16 00:40:15;;;;;;;5.22;1.90;;;7.70;99.90;;;;;;6247944;22;20019;-90
2021/05/16 00:42:42;;;;;;;4.40;1.90;;;7.60;99.90;;;;;;6247204;22;20497;-87
2021/05/16 00:45:15;;;;;;;7.63;1.77;;;7.70;99.90;;;;;;6247631;22;20035;-88
2021/05/16 00:47:50;;;;;;;3.88;1.65;;;7.70;99.90;;;;;;6248474;22;20023;-88
2021/05/16 00:50:20;;;;;;;5.07;1.20;;;7.70;99.90;;;;;;6249406;22;20073;-89
2021/05/16 00:52:47;;;;;;;6.38;1.40;;;7.70;99.90;;;;;;6248729;22;20019;-89
2021/05/16 00:55:19;;;;;;;4.82;1.40;;;7.60;99.90;;;;;;6276690;22;20016;-89
2021/05/16 00:57:47;;;;;;;4.25;1.75;;;7.70;99.90;;;;;;6251068;22;20103;-89
2021/05/16 01:00:17;;;;;;;4.70;1.70;;;7.70;99.90;;;;;;6251654;22;20038;-88
2021/05/16 01:02:44;;;;;;;3.85;1.75;;;7.70;99.90;;;;;;6253136;22;20552;-90
2021/05/16 01:05:14;;;;;;;3.22;1.35;;;7.70;99.90;;;;;;6253464;22;20016;-90
2021/05/16 01:07:42;;;;;;;4.07;1.88;;;7.70;99.90;;;;;;6249744;22;20237;-87
2021/05/16 01:10:12;;;;;;;5.65;1.60;;;7.70;99.90;;;;;;6247708;22;20019;-88
2021/05/16 01:12:45;;;;;;;5.93;1.48;;;7.80;99.90;;;;;;6246991;22;20035;-89
2021/05/16 01:15:14;;;;;;;;;;;7.70;99.90;;;;;;6250077;22;20092;-90
2021/05/16 01:17:42;;;;;;;5.28;1.90;;;7.70;99.90;;;;;;6249044;22;20089;-88
2021/05/16 01:20:14;;;;;;;8.30;1.80;;;7.80;99.90;;;;;;6249245;22;20125;-91
2021/05/16 01:22:40;;;;;;;4.57;1.90;;;7.80;99.90;;;;;;6248617;22;20028;-89
2021/05/16 01:25:08;;;;;;;7.63;1.98;;;7.80;99.90;;;;;;6248575;22;20032;-89
2021/05/16 01:27:35;;;;;;;4.03;2.08;;;7.80;99.90;;;;;;6248885;22;20027;-89
2021/05/16 01:30:06;;;;;;;5.10;2.10;;;7.80;99.90;;;;;;6275583;22;20077;-88
2021/05/16 01:32:33;;;;;;;8.70;1.92;;;7.80;99.90;;;;;;6274068;22;20027;-89
2021/05/16 01:35:00;;;;;;;5.93;1.70;;;7.80;99.90;;;;;;6248749;22;20245;-88
2021/05/16 01:37:27;;;;;;;8.00;2.30;;;7.80;99.90;;;;;;6247960;22;20023;-88
2021/05/16 01:39:54;;;;;;;8.48;2.22;;;7.90;99.90;;;;;;6248649;22;20019;-88
2021/05/16 01:42:22;;;;;;;5.80;2.10;;;7.90;99.90;;;;;;6249202;22;20103;-87
2021/05/16 01:44:51;;;;;;;8.88;2.13;;;7.90;99.90;;;;;;6248392;22;20016;-88
2021/05/16 01:47:19;;;;;;;5.10;1.98;;;7.90;99.90;;;;;;6275103;22;20024;-88
2021/05/16 01:49:53;;;;;;;4.40;1.70;;;7.90;99.90;;;;;;6223452;22;20118;-89
2021/05/16 01:52:25;;;;;;;5.88;2.10;;;7.90;99.90;;;;;;6248592;22;20051;-88
2021/05/16 01:54:52;;;;;;;4.60;1.60;;;8.00;99.90;;;;;;6248738;22;20047;-88
2021/05/16 01:57:20;;;;;;;7.05;2.30;;;8.00;99.90;;;;;;6225117;22;20103;-90
2021/05/16 01:59:48;;;;;;;4.60;1.63;;;7.90;99.90;;;;;;6257415;22;20016;-87
2021/05/16 02:02:18;;;;;;;3.92;2.00;;;8.00;99.90;;;;;;6256820;22;20019;-87
2021/05/16 02:04:46;;;;;;;6.60;2.05;;;8.00;99.90;;;;;;6257924;22;20031;-88
2021/05/16 02:07:13;;;;;;;6.93;2.25;;;7.90;99.90;;;;;;6248336;22;20114;-89
2021/05/16 02:09:43;;;;;;;8.10;1.98;;;7.90;99.90;;;;;;6248511;22;20035;-89
2021/05/16 02:12:10;;;;;;;3.67;1.65;;;7.90;99.90;;;;;;6223600;22;20311;-89
2021/05/16 02:14:40;;;;;;;6.57;2.65;;;7.90;99.90;;;;;;6248201;22;20081;-88
2021/05/16 02:17:06;;;;;;;3.83;2.10;;;7.90;99.90;;;;;;6246951;22;20032;-89
2021/05/16 02:19:34;;;;;;;9.65;2.70;;;7.90;99.90;;;;;;6248017;22;20051;-90
2021/05/16 02:22:01;;;;;;;4.82;2.33;;;7.90;99.90;;;;;;6248244;22;20430;-87
2021/05/16 02:24:30;;;;;;;6.40;2.05;;;7.90;99.90;;;;;;6224100;22;20011;-87
2021/05/16 02:27:00;;;;;;;5.78;2.25;;;7.90;99.90;;;;;;6248989;22;20016;-88
2021/05/16 02:29:28;;;;;;;3.85;2.25;;;8.00;99.90;;;;;;6248448;22;20019;-89
2021/05/16 02:31:57;;;;;;;7.15;2.88;;;8.00;99.90;;;;;;6248321;22;20434;-88
2021/05/16 02:34:27;;;;;;;8.13;2.30;;;8.10;99.90;;;;;;6251692;22;20101;-89
2021/05/16 02:36:54;;;;;;;7.28;2.15;;;8.10;99.90;;;;;;6233402;22;20024;-88
2021/05/16 02:39:23;;;;;;;6.55;2.20;;;8.10;99.90;;;;;;6258433;22;20403;-87
2021/05/16 02:41:50;;;;;;;6.25;2.10;;;8.10;99.90;;;;;;6247879;22;20157;-89
2021/05/16 02:44:18;;;;;;;4.93;2.22;;;8.10;99.90;;;;;;6247471;22;20442;-90
2021/05/16 02:46:46;;;;;;;6.32;2.20;;;8.10;99.90;;;;;;6247929;22;20155;-88
2021/05/16 02:49:13;;;;;;;4.95;2.25;;;8.20;99.90;;;;;;6247774;22;20112;-89
2021/05/16 02:51:42;;;;;;;5.28;2.00;;;8.20;99.90;;;;;;6247563;22;20039;-89
2021/05/16 02:54:09;;;;;;;4.25;2.00;;;8.20;99.90;;;;;;6247441;22;20032;-89
2021/05/16 02:56:39;;;;;;;4.70;2.03;;;8.20;99.90;;;;;;6248234;22;20042;-89
2021/05/16 02:59:06;;;;;;;2.95;1.70;;;8.20;99.90;;;;;;6246660;22;20035;-89
2021/05/16 03:01:33;;;;;;;2.35;1.90;;;8.20;99.90;;;;;;6248690;22;20019;-89
2021/05/16 03:04:00;;;;;;;8.15;2.03;;;8.30;99.90;;;;;;6274363;22;20471;-88
2021/05/16 03:06:28;;;;;;;2.45;1.70;;;8.20;99.90;;;;;;6247608;22;20015;-89
2021/05/16 03:08:59;;;;;;;2.47;1.65;;;8.30;99.90;;;;;;6247736;22;20039;-88
2021/05/16 03:11:26;;;;;;;5.32;2.05;;;8.30;99.90;;;;;;6223420;22;20030;-89
2021/05/16 03:13:53;;;;;;;3.25;1.65;;;8.30;99.90;;;;;;6223327;22;20333;-89
2021/05/16 03:16:20;;;;;;;7.13;1.88;;;8.30;99.90;;;;;;6248216;22;20024;-88
2021/05/16 03:18:48;;;;;;;5.50;1.58;;;8.30;99.90;;;;;;6247687;22;20089;-90
2021/05/16 03:21:15;;;;;;;2.63;1.38;;;8.30;99.90;;;;;;6247280;22;20031;-89
2021/05/16 03:23:42;;;;;;;5.95;1.90;;;8.30;99.90;;;;;;6248026;22;20098;-89
2021/05/16 03:26:11;;;;;;;5.55;2.03;;;8.30;99.90;;;;;;6222848;22;20035;-90
2021/05/16 03:28:39;;;;;;;7.35;2.03;;;8.30;99.90;;;;;;6274150;22;20044;-89
2021/05/16 03:31:06;;;;;;;4.22;1.52;;;8.30;99.90;;;;;;6222752;22;20365;-88
2021/05/16 03:33:33;;;;;;;4.00;1.85;;;8.20;99.90;;;;;;6247478;22;20031;-89
2021/05/16 03:36:00;;;;;;;3.60;1.83;;;8.20;99.90;;;;;;6223296;22;20047;-89
2021/05/16 03:38:27;;;;;;;5.75;1.77;;;8.20;99.90;;;;;;6223229;22;20019;-90
2021/05/16 03:40:54;;;;;;;4.35;1.73;;;8.20;99.90;;;;;;6246862;22;20031;-90
2021/05/16 03:43:22;;;;;;;4.70;1.65;;;8.20;99.90;;;;;;6197596;22;20022;-90
2021/05/16 03:45:49;;;;;;;3.85;2.00;;;8.20;99.90;;;;;;6222717;22;20016;-89
2021/05/16 03:48:17;;;;;;;4.90;1.42;;;8.20;99.90;;;;;;6273799;22;20016;-88
2021/05/16 03:50:44;;;;;;;2.75;1.48;;;8.20;99.90;;;;;;6247321;22;20030;-88
2021/05/16 03:53:11;;;;;;;3.95;1.65;;;8.10;99.90;;;;;;6222173;22;20039;-88
2021/05/16 03:55:38;;;;;;;2.95;1.30;;;8.10;99.90;;;;;;6223400;22;20024;-88
2021/05/16 03:58:05;;;;;;;4.38;1.80;;;8.10;99.90;;;;;;6247332;22;20019;-88
2021/05/16 04:00:32;;;;;;;4.57;1.50;;;8.10;99.90;;;;;;6222059;22;20015;-88
2021/05/16 04:02:59;;;;;;;2.67;1.52;;;8.10;99.90;;;;;;6246382;22;20055;-88
2021/05/16 04:05:26;;;;;;;3.63;1.50;;;8.10;99.90;;;;;;6222028;22;20484;-88
2021/05/16 04:07:54;;;;;;;2.05;1.60;;;8.10;99.90;;;;;;6197011;22;20051;-89
2021/05/16 04:10:21;;;;;;;4.15;1.75;;;8.10;99.90;;;;;;6246905;22;20100;-88
2021/05/16 04:12:50;;;;;;;2.70;1.67;;;8.10;99.90;;;;;;6246994;22;20411;-90
2021/05/16 04:15:17;;;;;;;4.50;1.92;;;8.00;99.90;;;;;;6247898;22;20329;-89
2021/05/16 04:17:46;;;;;;;4.38;2.17;;;7.90;99.90;;;;;;6222262;22;20019;-88
2021/05/16 04:20:13;;;;;;;6.57;2.58;;;7.90;99.90;;;;;;6247194;22;20067;-89
2021/05/16 04:22:42;;;;;;;3.60;2.00;;;7.90;99.90;;;;;;6245959;22;20023;-90
2021/05/16 04:25:10;;;;;;;3.28;1.90;;;7.90;99.90;;;;;;6270208;22;20043;-89
2021/05/16 04:27:37;;;;;;;4.90;1.85;;;7.90;99.90;;;;;;6245530;22;20315;-92
2021/05/16 04:30:20;;;;;;;4.82;2.25;;;8.00;99.90;;;;;;6220429;22;20038;-89
2021/05/16 04:32:54;;;;;;;6.95;2.15;;;8.00;99.90;;;;;;6247744;22;20023;-90
2021/05/16 04:35:26;;;;;;;6.53;1.65;;;8.00;99.90;;;;;;6245815;22;20024;-91
2021/05/16 04:37:59;;;;;;;2.80;1.98;;;8.00;99.90;;;;;;6273316;22;20023;-92
2021/05/16 04:40:45;;;;;;;1.33;1.23;;;8.00;99.90;;;;;;6249002;22;20020;-91
2021/05/16 04:43:32;;;;;;;2.08;1.60;;;8.10;99.90;;;;;;6273846;22;20022;-91
2021/05/16 04:46:02;;;;;;;2.80;1.42;;;8.10;99.90;;;;;;6247278;22;20030;-91
2021/05/16 04:48:29;;;;;;;2.22;1.40;;;8.20;99.90;;;;;;6247015;22;20427;-91
2021/05/16 04:51:05;;;;;;;2.05;1.40;;;8.20;99.90;;;;;;6246015;22;20081;-92
2021/05/16 04:53:53;;;;;;;3.92;1.77;;;8.20;99.90;;;;;;6249075;22;20024;-91
2021/05/16 04:56:34;;;;;;;3.70;1.63;;;8.20;99.90;;;;;;6247077;22;20025;-91
2021/05/16 04:59:02;;;;;;;2.63;1.42;;;8.30;99.90;;;;;;6222544;22;20085;-91
2021/05/16 05:01:29;;;;;;;1.40;1.30;;;8.30;99.90;;;;;;6224943;22;20019;-91
2021/05/16 05:04:12;;;;;;;4.10;1.63;;;8.30;99.90;;;;;;6279592;22;20016;-90
2021/05/16 05:07:07;;;;;;;4.00;1.67;;;8.40;99.90;;;;;;6254469;22;20011;-91
2021/05/16 05:09:34;;;;;;;5.13;1.40;;;8.40;99.90;;;;;;6275963;22;20024;-89
2021/05/16 05:12:08;;;;;;;4.30;1.35;;;8.40;99.90;;;;;;6290988;22;20050;-91
2021/05/16 05:14:42;;;;;;;2.75;1.17;;;8.50;99.90;;;;;;6263222;22;20050;-91
2021/05/16 05:17:13;;;;;;;3.53;1.30;;;8.50;99.90;;;;;;6261996;22;20031;-91
2021/05/16 05:19:40;;;;;;;6.00;1.55;;;8.50;99.90;;;;;;6280830;22;20028;-88
2021/05/16 05:22:09;;;;;;;3.63;1.40;;;8.50;99.90;;;;;;6273708;22;20038;-92
2021/05/16 05:24:36;;;;;;;6.28;2.00;;;8.50;99.90;;;;;;6275722;22;20027;-91
2021/05/16 05:27:03;;;;;;;3.65;1.40;;;8.50;99.90;;;;;;6198561;22;20607;-92
2021/05/16 05:29:30;;;;;;;5.75;1.73;;;8.60;99.90;;;;;;6249770;22;20020;-90
2021/05/16 05:31:57;;;;;;;4.22;1.50;;;8.60;99.90;;;;;;6236701;22;20020;-90
2021/05/16 05:34:29;;;;;;;3.78;1.58;;;8.60;99.90;;;;;;6236989;22;20016;-91
2021/05/16 05:36:59;;;;;;;2.28;1.05;;;8.60;99.90;;;;;;6252389;22;20073;-91
2021/05/16 05:39:36;;;;;;;2.05;1.20;;;8.60;99.90;;;;;;6226070;22;20085;-92
2021/05/16 05:42:09;;;;;;;4.35;1.50;;;8.50;99.90;;;;;;6251088;22;20102;-91
2021/05/16 05:44:40;;;;;;;3.90;1.30;;;8.50;99.90;;;;;;6226295;22;20015;-90
2021/05/16 05:47:44;;;;;;;4.45;1.60;;;8.50;99.90;;;;;;6250705;22;20290;-92
2021/05/16 05:51:14;;;;;;;;;;;;;;;;;;;;;
2021/05/16 05:53:45;;;;;;;2.05;1.10;;;8.90;99.90;;;;;;6277464;22;20024;-88
2021/05/16 05:56:11;;;;;;;3.40;1.17;;;9.40;99.90;;;;;;6249500;22;20020;-90
2021/05/16 05:58:39;;;;;;;4.93;1.27;;;9.80;99.90;;;;;;6249748;22;20019;-90
2021/05/16 06:01:06;;;;;;;2.80;1.20;;;10.30;99.90;;;;;;6199516;22;20026;-91
2021/05/16 06:03:34;;;;;;;4.93;1.00;;;10.40;99.90;;;;;;6273719;22;20431;-87
2021/05/16 06:06:01;;;;;;;4.10;1.02;;;10.20;99.90;;;;;;6247535;22;20031;-89
2021/05/16 06:08:31;;;;;;;5.57;1.23;;;10.10;99.90;;;;;;6247721;22;20423;-86
2021/05/16 06:10:58;;;;;;;1.05;0.90;;;10.00;99.90;;;;;;6222471;22;20015;-87
2021/05/16 06:13:25;;;;;;;4.80;1.27;;;10.00;99.90;;;;;;6247293;22;20291;-86
2021/05/16 06:15:52;;;;;;;2.17;0.90;;;10.60;99.90;;;;;;6247742;22;20027;-87
2021/05/16 06:18:22;;;;;;;1.75;0.95;;;10.90;99.90;;;;;;6275547;22;20371;-89
2021/05/16 06:20:50;;;;;;;3.00;1.27;;;10.90;99.90;;;;;;6229190;22;20019;-90
2021/05/16 06:23:18;;;;;;;2.80;1.10;;;10.80;99.90;;;;;;6251730;22;20475;-89
2021/05/16 06:25:47;;;;;;;3.40;1.00;;;10.90;99.90;;;;;;6248370;22;20077;-88
2021/05/16 06:28:14;;;;;;;0.90;0.70;;;11.10;99.90;;;;;;6274937;22;20012;-88
2021/05/16 06:30:42;;;;;;;0.90;0.82;;;11.40;99.90;;;;;;6248345;22;20038;-89
2021/05/16 06:33:12;;;;;;;2.05;0.68;;;11.80;99.90;;;;;;6247843;22;20027;-90
2021/05/16 06:35:56;;;;;;;2.53;0.90;;;11.90;99.90;;;;;;6180865;23;20017;-89
2021/05/16 06:38:23;;;;;;;1.88;0.70;;;11.90;99.90;;;;;;6131946;23;20021;-88
2021/05/16 06:40:50;;;;;;;1.25;0.90;;;11.80;99.90;;;;;;6180570;23;20385;-86
2021/05/16 06:43:19;;;;;;;4.60;1.20;;;11.90;99.90;;;;;;6156277;23;20017;-89
2021/05/16 06:45:48;;;;;;;2.72;1.15;;;12.00;99.90;;;;;;6131634;23;20017;-87
2021/05/16 06:48:15;;;;;;;2.15;0.77;;;12.20;99.90;;;;;;6156315;23;20176;-88
2021/05/16 06:50:44;;;;;;;2.45;0.85;;;12.30;99.90;;;;;;6156304;23;20021;-90
2021/05/16 06:53:11;;;;;;;1.70;0.70;;;12.40;99.90;;;;;;6133001;23;20025;-90
2021/05/16 06:55:38;;;;;;;2.22;1.00;;;12.80;99.90;;;;;;6158073;23;20498;-88
2021/05/16 06:58:07;;;;;;;3.50;0.90;;;13.20;99.90;;;;;;6159019;23;20386;-89
2021/05/16 07:00:34;;;;;;;4.15;1.10;;;13.20;99.90;;;;;;6108405;23;20368;-88
2021/05/16 07:03:02;;;;;;;3.42;1.00;;;12.80;99.90;;;;;;6156316;23;20045;-88
2021/05/16 07:05:31;;;;;;;3.13;1.00;;;12.40;99.90;;;;;;6132328;23;20364;-88
2021/05/16 07:08:00;;;;;;;2.75;1.10;;;12.50;99.90;;;;;;6216805;22;20078;-90
2021/05/16 07:10:27;;;;;;;3.13;1.08;;;12.60;99.90;;;;;;6247917;22;20077;-89
2021/05/16 07:12:54;;;;;;;4.40;0.95;;;12.60;99.90;;;;;;6249009;22;20024;-90
2021/05/16 07:15:21;;;;;;;2.17;0.93;;;12.20;99.90;;;;;;6249065;22;20030;-88
2021/05/16 07:17:49;;;;;;;2.72;1.00;;;11.80;99.90;;;;;;6225676;22;20030;-87
2021/05/16 07:20:16;;;;;;;3.50;1.20;;;11.80;99.90;;;;;;6249563;22;20093;-88
2021/05/16 07:22:42;;;;;;;3.90;1.02;;;11.90;99.90;;;;;;6249333;22;20452;-88
2021/05/16 07:25:14;;;;;;;3.70;1.27;;;11.70;99.90;;;;;;6248357;22;20024;-89
2021/05/16 07:27:41;;;;;;;4.05;1.25;;;11.60;99.90;;;;;;6248783;22;20012;-87
2021/05/16 07:30:09;;;;;;;3.05;1.20;;;11.80;99.90;;;;;;6223719;22;20023;-87
2021/05/16 07:32:36;;;;;;;7.75;1.35;;;12.10;99.90;;;;;;6248378;22;20032;-87
2021/05/16 07:35:04;;;;;;;1.13;0.90;;;12.80;99.90;;;;;;6247835;22;20370;-87
2021/05/16 07:37:33;;;;;;;3.65;1.33;;;13.30;99.90;;;;;;6248406;22;20042;-89
2021/05/16 07:40:00;;;;;;;3.22;1.02;;;13.80;99.90;;;;;;6249400;22;20074;-87
2021/05/16 07:42:33;;;;;;;4.25;1.35;;;14.30;99.90;;;;;;6250591;22;20075;-89
2021/05/16 07:45:10;;;;;;;5.28;1.17;;;14.60;99.90;;;;;;6252214;22;20019;-90
2021/05/16 07:47:38;;;;;;;3.63;1.10;;;14.30;99.90;;;;;;6249389;22;20019;-90
2021/05/16 07:50:07;;;;;;;6.20;1.30;;;14.00;99.90;;;;;;6248689;22;20102;-90
2021/05/16 07:52:33;;;;;;;3.85;1.20;;;13.50;99.90;;;;;;6248362;22;20077;-88
2021/05/16 07:55:01;;;;;;;6.45;1.42;;;13.00;99.90;;;;;;6248902;22;20027;-87
2021/05/16 07:57:28;;;;;;;7.07;2.03;;;12.80;99.90;;;;;;6223205;22;20024;-88
2021/05/16 07:59:55;;;;;;;4.25;1.27;;;13.00;99.90;;;;;;6248628;22;20040;-89
2021/05/16 08:02:22;;;;;;;4.95;1.50;;;13.50;99.90;;;;;;6249370;22;20024;-88
2021/05/16 08:04:49;;;;;;;8.63;1.73;;;14.00;99.90;;;;;;6224196;22;20025;-89
2021/05/16 08:07:18;;;;;;;4.80;1.50;;;14.00;99.90;;;;;;6225107;22;20082;-88
2021/05/16 08:09:46;;;;;;;5.97;1.75;;;14.30;99.90;;;;;;6224383;22;20457;-87
2021/05/16 08:12:13;;;;;;;5.05;1.20;;;14.60;99.90;;;;;;6249554;22;20087;-90
2021/05/16 08:14:42;;;;;;;5.18;1.05;;;14.40;99.90;;;;;;6277837;22;20069;-88
2021/05/16 08:17:14;;;;;;;6.07;1.10;;;14.50;99.90;;;;;;6249261;22;20241;-87
2021/05/16 08:19:41;;;;;;;2.83;1.20;;;14.90;98.90;;;;;;6248668;22;20042;-88
2021/05/16 08:22:14;;;;;;;5.07;1.40;;;14.90;97.40;;;;;;6247975;22;20020;-89
2021/05/16 08:24:41;;;;;;;3.72;1.45;;;14.80;96.00;;;;;;6225911;22;20160;-88
2021/05/16 08:27:08;;;;;;;6.55;1.70;;;14.70;96.10;;;;;;6224940;22;20074;-88
2021/05/16 08:29:36;;;;;;;4.97;1.70;;;14.90;97.10;;;;;;6249501;22;20489;-89
2021/05/16 08:32:05;;;;;;;4.32;1.50;;;15.30;94.60;;;;;;6249911;22;20019;-91
2021/05/16 08:34:33;;;;;;;6.78;1.70;;;15.40;92.40;;;;;;6250327;22;20085;-90
2021/05/16 08:37:04;;;;;;;9.57;3.13;;;15.60;92.50;;;;;;6249913;22;20027;-87
2021/05/16 08:39:31;;;;;;;5.95;1.70;;;15.70;93.80;;;;;;6249689;22;20077;-90
2021/05/16 08:41:59;;;;;;;4.80;1.58;;;16.00;85.20;;;;;;6249316;22;20047;-90
2021/05/16 08:44:31;;;;;;;6.85;1.45;;;16.10;87.90;;;;;;6249761;22;20027;-90
2021/05/16 08:47:00;;;;;;;4.07;1.40;;;16.20;82.90;;;;;;6249492;22;20015;-89
2021/05/16 08:49:27;;;;;;;4.30;1.40;;;15.80;82.80;;;;;;6249145;22;20410;-88
2021/05/16 08:51:55;;;;;;;10.48;1.85;;;16.10;85.70;;;;;;6276335;22;20020;-89
2021/05/16 08:54:24;;;;;;;5.97;1.58;;;15.80;82.70;;;;;;6249243;22;20087;-87
2021/05/16 08:56:54;;;;;;;7.07;1.90;;;15.30;86.00;;;;;;6249710;22;20034;-90
2021/05/16 08:59:23;;;;;;;8.32;1.88;;;15.90;88.30;;;;;;6249135;22;20023;-88
2021/05/16 09:01:55;;;;;;;7.22;1.42;;;16.10;80.20;;;;;;6249027;22;20066;-88
2021/05/16 09:04:32;;;;;;;4.85;1.30;;;15.40;81.70;;;;;;6248996;22;20023;-88
2021/05/16 09:07:03;;;;;;;6.15;1.58;;;15.00;85.40;;;;;;6249581;22;20012;-87
2021/05/16 09:09:30;;;;;;;11.52;1.80;;;15.70;83.00;;;;;;6249258;22;20016;-89
2021/05/16 09:12:03;;;;;;;7.03;1.25;;;16.00;81.70;;;;;;6249760;22;20085;-89
2021/05/16 09:14:52;;;;;;;5.45;1.63;;;15.70;79.70;;;;;;6275752;22;20058;-89
2021/05/16 09:17:25;;;;;;;6.88;1.60;;;15.20;83.50;;;;;;6256490;22;20036;-89
2021/05/16 09:19:57;;;;;;;5.80;1.50;;;15.80;82.50;;;;;;6280827;22;20020;-87
2021/05/16 09:22:36;;;;;;;5.47;1.77;;;16.70;79.00;;;;;;6252974;22;20023;-88
2021/05/16 09:25:14;;;;;;;6.80;1.50;;;16.90;78.20;;;;;;6249537;22;20020;-87
2021/05/16 09:27:45;;;;;;;4.22;1.42;;;17.40;75.60;;;;;;6275292;22;20081;-89
2021/05/16 09:30:18;;;;;;;7.25;1.25;;;18.20;68.50;;;;;;6248558;22;20028;-90
2021/05/16 09:32:53;;;;;;;6.80;1.27;;;18.60;62.30;;;;;;6248958;22;20023;-88
2021/05/16 09:35:30;;;;;;;7.13;1.58;;;17.80;62.00;;;;;;6275572;22;20035;-88
2021/05/16 09:38:09;;;;;;;6.20;1.50;;;17.60;61.00;;;;;;6249375;22;20015;-89
2021/05/16 09:40:48;;;;;;;5.60;1.70;;;17.70;61.40;;;;;;6249074;22;20032;-92
2021/05/16 09:43:18;;;;;;;3.95;1.23;;;17.80;63.50;;;;;;6275837;22;20067;-87
2021/05/16 09:46:05;;;;;;;4.43;1.20;;;18.90;63.00;;;;;;6248784;22;20468;-90
2021/05/16 09:48:38;;;;;;;6.93;1.40;;;20.10;58.00;;;;;;6249176;22;20356;-90
2021/05/16 09:51:22;;;;;;;7.38;1.75;;;19.40;57.50;;;;;;6248282;22;20085;-86
2021/05/16 09:53:52;;;;;;;4.35;1.27;;;18.90;57.90;;;;;;6248510;22;20031;-89
2021/05/16 09:56:46;;;;;;;5.30;1.38;;;19.00;58.60;;;;;;6241481;22;20015;-91
2021/05/16 09:59:14;;;;;;;5.63;1.20;;;18.80;58.90;;;;;;6249509;22;20031;-90
2021/05/16 10:01:41;;;;;;;5.93;1.20;;;17.70;61.00;;;;;;6249146;22;20026;-89
2021/05/16 10:04:08;;;;;;;6.60;1.40;;;17.20;60.00;;;;;;6248951;22;20027;-88
2021/05/16 10:06:36;;;;;;;4.68;1.02;;;17.40;62.10;;;;;;6249185;22;20012;-90
2021/05/16 10:09:04;;;;;;;4.40;1.52;;;18.20;59.50;;;;;;6249374;22;20042;-89
2021/05/16 10:11:32;;;;;;;3.72;1.35;;;18.70;58.10;;;;;;6249486;22;20019;-89
2021/05/16 10:14:29;;;;;;;3.33;1.15;;;18.60;56.90;;;;;;6249398;22;20031;-89
2021/05/16 10:17:00;;;;;;;5.10;1.23;;;18.20;57.00;;;;;;6226137;22;20097;-89
2021/05/16 10:19:33;;;;;;;5.70;1.38;;;17.20;60.10;;;;;;6250062;22;20528;-89
2021/05/16 10:22:11;;;;;;;5.88;1.63;;;16.80;61.60;;;;;;6248811;22;20038;-88
2021/05/16 10:24:45;;;;;;;5.68;1.50;;;17.70;63.80;;;;;;6250287;22;20403;-89
2021/05/16 10:27:16;;;;;;;4.90;1.23;;;18.10;59.90;;;;;;6250879;22;20020;-88
2021/05/16 10:29:51;;;;;;;4.20;1.10;;;17.80;60.70;;;;;;6249088;22;20016;-87
2021/05/16 10:32:24;;;;;;;3.97;1.20;;;17.90;58.00;;;;;;6249038;22;20077;-90
2021/05/16 10:34:56;;;;;;;6.55;1.52;;;18.20;59.00;;;;;;6248865;22;20024;-89
2021/05/16 10:37:38;;;;;;;6.63;1.35;;;18.60;58.70;;;;;;6248138;22;20381;-91
2021/05/16 10:40:27;;;;;;;8.77;1.17;;;18.30;57.00;;;;;;6248700;22;20032;-88
2021/05/16 10:43:03;;;;;;;6.97;1.80;;;16.90;59.30;;;;;;6248926;22;20085;-89
2021/05/16 10:45:40;;;;;;;5.25;1.30;;;16.30;64.40;;;;;;6248860;22;20024;-89
2021/05/16 10:48:20;;;;;;;7.03;1.52;;;15.80;74.20;;;;;;6274705;22;20457;-91
2021/05/16 10:50:55;;;;;;;8.18;1.60;;;15.30;74.40;;;;;;6247967;22;20380;-89
2021/05/16 10:53:27;;;;;;;5.25;1.40;;;15.50;76.60;;;;;;6248434;22;20103;-90
2021/05/16 10:56:21;;;;;;;5.50;1.20;;;17.10;70.00;;;;;;6248765;22;20092;-89
2021/05/16 10:58:51;;;;;;;4.07;1.15;;;18.00;65.80;;;;;;6223313;22;20100;-89
2021/05/16 11:01:32;;;;;;;7.43;1.40;;;18.40;63.90;;;;;;6248699;22;20011;-90
2021/05/16 11:04:01;;;;;;;7.40;2.08;;;18.60;60.10;;;;;;6248135;22;20453;-90
2021/05/16 11:06:31;;;;;;;7.35;1.33;;;18.50;60.70;;;;;;6275504;22;20369;-90
2021/05/16 11:09:00;;;;;;;3.40;1.30;;;17.70;61.60;;;;;;6248403;22;20073;-90
2021/05/16 11:11:48;;;;;;;4.10;1.17;;;17.70;65.40;;;;;;6248427;22;20031;-90
2021/05/16 11:14:31;;;;;;;4.03;1.30;;;17.80;62.00;;;;;;6276886;22;20059;-90
2021/05/16 11:17:04;;;;;;;4.60;1.15;;;18.10;61.60;;;;;;6249859;22;20019;-90
2021/05/16 11:19:33;;;;;;;2.75;1.08;;;18.60;61.40;;;;;;6249413;22;20019;-88
2021/05/16 11:22:12;;;;;;;3.17;1.13;;;19.40;60.40;;;;;;6248519;22;20023;-87
2021/05/16 11:24:49;;;;;;;4.22;1.42;;;19.70;57.10;;;;;;6248133;22;20379;-88
2021/05/16 11:27:22;;;;;;;4.22;1.10;;;20.10;55.60;;;;;;6248668;22;20015;-92
2021/05/16 11:29:58;;;;;;;4.90;1.10;;;20.50;51.00;;;;;;6249041;22;20012;-89
2021/05/16 11:32:30;;;;;;;3.33;1.23;;;20.60;52.00;;;;;;6248025;22;20020;-88
2021/05/16 11:35:02;;;;;;;5.68;1.42;;;21.50;51.10;;;;;;6248610;22;20306;-90
2021/05/16 11:37:31;;;;;;;4.72;1.90;;;21.60;50.70;;;;;;6276757;22;20039;-90
2021/05/16 11:40:18;;;;;;;4.80;1.75;;;20.60;51.60;;;;;;6249059;22;20016;-88
2021/05/16 11:42:46;;;;;;;2.97;0.90;;;19.90;53.00;;;;;;6247732;22;20019;-88
2021/05/16 11:45:15;;;;;;;4.70;1.50;;;19.10;53.10;;;;;;6249680;22;20039;-89
2021/05/16 11:47:44;;;;;;;6.15;1.20;;;19.10;55.00;;;;;;6275542;22;20098;-86
2021/05/16 11:50:12;;;;;;;4.05;1.52;;;18.70;54.40;;;;;;6249865;22;20015;-87
2021/05/16 11:52:46;;;;;;;4.07;2.20;;;18.40;56.40;;;;;;6251657;22;20074;-89
2021/05/16 11:55:15;;;;;;;5.28;2.20;;;18.30;57.10;;;;;;6248239;22;20019;-90
2021/05/16 11:57:43;;;;;;;5.00;1.42;;;18.10;58.10;;;;;;6247998;22;20020;-89
2021/05/16 12:00:13;;;;;;;4.95;1.27;;;17.90;59.70;;;;;;6249396;22;20023;-88
2021/05/16 12:02:40;;;;;;;3.40;1.23;;;18.00;58.10;;;;;;6248703;22;20087;-89
2021/05/16 12:05:10;;;;;;;5.45;1.30;;;18.60;57.90;;;;;;6226398;22;20259;-88
2021/05/16 12:07:37;;;;;;;4.32;1.30;;;19.50;58.50;;;;;;6252042;22;20023;-88
2021/05/16 12:10:06;;;;;;;5.65;1.17;;;19.90;54.40;;;;;;6277616;22;20485;-89
2021/05/16 12:12:32;;;;;;;8.05;1.60;;;19.80;53.10;;;;;;6250123;22;20122;-88
2021/05/16 12:14:59;;;;;;;5.60;1.20;;;19.10;54.30;;;;;;6250375;22;20030;-88
2021/05/16 12:17:37;;;;;;;4.47;1.38;;;19.20;54.60;;;;;;6222189;22;20016;-88
2021/05/16 12:20:09;;;;;;;5.03;1.38;;;19.20;52.50;;;;;;6248609;22;20097;-88
2021/05/16 12:22:41;;;;;;;3.08;1.55;;;18.50;54.10;;;;;;6247713;22;20043;-89
2021/05/16 12:25:08;;;;;;;;;;;18.30;56.10;;;;;;6273741;22;20065;-90
2021/05/16 12:27:35;;;;;;;3.83;1.25;;;18.00;55.60;;;;;;6248024;22;19977;-89
2021/05/16 12:30:05;;;;;;;5.72;1.42;;;17.40;57.50;;;;;;6248764;22;20031;-89
2021/05/16 12:32:32;;;;;;;4.40;1.35;;;17.20;58.40;;;;;;6247390;22;20064;-87
2021/05/16 12:34:59;;;;;;;3.53;1.23;;;16.90;58.90;;;;;;6248020;22;20027;-88
2021/05/16 12:37:29;;;;;;;6.38;2.00;;;16.60;60.00;;;;;;6247439;22;20086;-87
2021/05/16 12:39:59;;;;;;;3.85;1.48;;;16.40;60.70;;;;;;6248210;22;20020;-89
2021/05/16 12:42:31;;;;;;;5.20;1.30;;;16.00;60.00;;;;;;6247904;22;20051;-88
2021/05/16 12:45:17;;;;;;;4.25;1.30;;;15.90;60.40;;;;;;6248245;22;20362;-87
2021/05/16 12:48:06;;;;;;;3.95;1.10;;;16.00;61.10;;;;;;6247199;22;20474;-89
2021/05/16 12:50:39;;;;;;;4.80;1.30;;;16.10;60.10;;;;;;6248214;22;20039;-90
2021/05/16 12:53:31;;;;;;;1.65;0.90;;;16.10;59.20;;;;;;6248783;22;20489;-92
2021/05/16 12:56:18;;;;;;;4.25;1.17;;;16.20;58.20;;;;;;6259891;22;20031;-90
2021/05/16 12:59:10;;;;;;;1.92;0.90;;;16.20;58.30;;;;;;6288766;22;20070;-94
2021/05/16 13:01:40;;;;;;;3.10;1.17;;;16.20;58.10;;;;;;6257446;22;20015;-92
2021/05/16 13:04:18;;;;;;;4.43;1.25;;;16.20;58.10;;;;;;6255966;22;20020;-92
2021/05/16 13:06:55;;;;;;;3.45;1.13;;;16.20;57.90;;;;;;6256215;22;20026;-93
2021/05/16 13:09:36;;;;;;;2.30;1.20;;;16.20;58.40;;;;;;6281475;22;20734;-91
2021/05/16 13:12:12;;;;;;;2.95;1.20;;;16.00;58.40;;;;;;6280795;22;20030;-94